sensor_id;sensor_type;location;lat;lon;timestamp;temperature;humidity
56436;DHT22;42335;44.872;20.658;2023-11-21T00:00:22;204.90;2252.80
56436;DHT22;42335;44.872;20.658;2023-11-21T00:02:47;204.80;2252.80
56436;DHT22;42335;44.872;20.658;2023-11-21T00:05:14;180.10;2252.80
56436;DHT22;42335;44.872;20.658;2023-11-21T00:07:40;204.80;2252.80
56436;DHT22;42335;44.872;20.658;2023-11-21T00:10:07;180.10;2252.80
56436;DHT22;42335;44.872;20.658;2023-11-21T00:12:36;180.00;2252.80
56436;DHT22;42335;44.872;20.658;2023-11-21T00:15:02;179.90;2252.80
56436;DHT22;42335;44.872;20.658;2023-11-21T00:17:28;179.90;2252.80
56436;DHT22;42335;44.872;20.658;2023-11-21T00:19:54;180.00;2252.80
56436;DHT22;42335;44.872;20.658;2023-11-21T00:22:20;180.00;2252.80
56436;DHT22;42335;44.872;20.658;2023-11-21T00:24:46;179.90;2252.80
56436;DHT22;42335;44.872;20.658;2023-11-21T00:27:12;179.90;2252.80
56436;DHT22;42335;44.872;20.658;2023-11-21T00:29:38;179.90;2252.80
56436;DHT22;42335;44.872;20.658;2023-11-21T00:32:05;179.90;2252.80
56436;DHT22;42335;44.872;20.658;2023-11-21T00:34:31;179.90;2252.80
56436;DHT22;42335;44.872;20.658;2023-11-21T00:36:57;179.90;2252.80
56436;DHT22;42335;44.872;20.658;2023-11-21T00:39:23;180.00;2252.80
56436;DHT22;42335;44.872;20.658;2023-11-21T00:41:49;180.00;2252.80
56436;DHT22;42335;44.872;20.658;2023-11-21T00:44:15;204.90;2252.80
56436;DHT22;42335;44.872;20.658;2023-11-21T00:46:41;180.00;2252.80
56436;DHT22;42335;44.872;20.658;2023-11-21T00:49:07;179.90;2252.80
56436;DHT22;42335;44.872;20.658;2023-11-21T00:51:33;179.80;2252.80
56436;DHT22;42335;44.872;20.658;2023-11-21T00:53:59;179.80;2252.80
56436;DHT22;42335;44.872;20.658;2023-11-21T00:56:24;179.80;2252.80
56436;DHT22;42335;44.872;20.658;2023-11-21T00:58:50;179.80;2252.80
56436;DHT22;42335;44.872;20.658;2023-11-21T01:01:20;179.80;2252.80
56436;DHT22;42335;44.872;20.658;2023-11-21T01:03:48;179.80;2252.80
56436;DHT22;42335;44.872;20.658;2023-11-21T01:06:16;179.70;2252.80
56436;DHT22;42335;44.872;20.658;2023-11-21T01:08:43;179.80;2252.80
56436;DHT22;42335;44.872;20.658;2023-11-21T01:11:10;179.80;2252.80
56436;DHT22;42335;44.872;20.658;2023-11-21T01:13:38;179.70;2252.80
56436;DHT22;42335;44.872;20.658;2023-11-21T01:16:05;179.70;2252.80
56436;DHT22;42335;44.872;20.658;2023-11-21T01:18:32;179.80;2252.80
56436;DHT22;42335;44.872;20.658;2023-11-21T01:20:58;179.80;2252.80
56436;DHT22;42335;44.872;20.658;2023-11-21T01:23:26;179.80;2252.80
56436;DHT22;42335;44.872;20.658;2023-11-21T01:25:52;179.80;2252.80
56436;DHT22;42335;44.872;20.658;2023-11-21T01:28:18;179.70;2252.80
56436;DHT22;42335;44.872;20.658;2023-11-21T01:30:45;179.50;2252.80
56436;DHT22;42335;44.872;20.658;2023-11-21T01:33:11;179.50;2252.80
56436;DHT22;42335;44.872;20.658;2023-11-21T01:35:37;179.30;2252.80
56436;DHT22;42335;44.872;20.658;2023-11-21T01:38:03;179.40;2252.80
56436;DHT22;42335;44.872;20.658;2023-11-21T01:40:29;179.30;2252.80
56436;DHT22;42335;44.872;20.658;2023-11-21T01:42:56;179.20;2252.80
56436;DHT22;42335;44.872;20.658;2023-11-21T01:45:22;179.20;2252.80
56436;DHT22;42335;44.872;20.658;2023-11-21T01:47:50;179.20;2252.80
56436;DHT22;42335;44.872;20.658;2023-11-21T01:50:17;154.50;2252.80
56436;DHT22;42335;44.872;20.658;2023-11-21T01:52:47;179.20;2252.80
56436;DHT22;42335;44.872;20.658;2023-11-21T01:55:15;179.20;2252.80
56436;DHT22;42335;44.872;20.658;2023-11-21T01:57:46;154.50;2252.80
56436;DHT22;42335;44.872;20.658;2023-11-21T02:00:12;154.50;2252.80
56436;DHT22;42335;44.872;20.658;2023-11-21T02:02:44;154.50;2252.80
56436;DHT22;42335;44.872;20.658;2023-11-21T02:05:13;154.50;2252.80
56436;DHT22;42335;44.872;20.658;2023-11-21T02:07:40;154.50;2252.80
56436;DHT22;42335;44.872;20.658;2023-11-21T02:10:07;154.50;2252.80
56436;DHT22;42335;44.872;20.658;2023-11-21T02:12:33;154.50;2252.80
56436;DHT22;42335;44.872;20.658;2023-11-21T02:15:02;154.50;2252.80
56436;DHT22;42335;44.872;20.658;2023-11-21T02:17:28;154.50;2252.80
56436;DHT22;42335;44.872;20.658;2023-11-21T02:19:54;179.20;2252.80
56436;DHT22;42335;44.872;20.658;2023-11-21T02:22:20;179.20;2252.80
56436;DHT22;42335;44.872;20.658;2023-11-21T02:24:46;179.20;2252.80
56436;DHT22;42335;44.872;20.658;2023-11-21T02:27:13;179.20;2252.80
56436;DHT22;42335;44.872;20.658;2023-11-21T02:29:39;179.20;2252.80
56436;DHT22;42335;44.872;20.658;2023-11-21T02:32:04;179.20;2252.80
56436;DHT22;42335;44.872;20.658;2023-11-21T02:34:30;154.50;2252.80
56436;DHT22;42335;44.872;20.658;2023-11-21T02:36:56;179.20;2252.80
56436;DHT22;42335;44.872;20.658;2023-11-21T02:39:23;154.50;2252.80
56436;DHT22;42335;44.872;20.658;2023-11-21T02:41:50;179.20;2252.80
56436;DHT22;42335;44.872;20.658;2023-11-21T02:44:16;179.20;2252.80
56436;DHT22;42335;44.872;20.658;2023-11-21T02:46:41;179.20;2252.80
56436;DHT22;42335;44.872;20.658;2023-11-21T02:49:07;179.20;2252.80
56436;DHT22;42335;44.872;20.658;2023-11-21T02:51:36;179.20;2252.80
56436;DHT22;42335;44.872;20.658;2023-11-21T02:54:03;179.20;2252.80
56436;DHT22;42335;44.872;20.658;2023-11-21T02:56:32;179.20;2252.80
56436;DHT22;42335;44.872;20.658;2023-11-21T02:59:01;179.30;2252.80
56436;DHT22;42335;44.872;20.658;2023-11-21T03:01:27;179.40;2252.80
56436;DHT22;42335;44.872;20.658;2023-11-21T03:03:53;179.40;2252.80
56436;DHT22;42335;44.872;20.658;2023-11-21T03:06:20;179.40;2252.80
56436;DHT22;42335;44.872;20.658;2023-11-21T03:08:46;179.40;2252.80
56436;DHT22;42335;44.872;20.658;2023-11-21T03:11:13;179.40;2252.80
56436;DHT22;42335;44.872;20.658;2023-11-21T03:13:42;179.40;2252.80
56436;DHT22;42335;44.872;20.658;2023-11-21T03:16:11;179.40;2252.80
56436;DHT22;42335;44.872;20.658;2023-11-21T03:18:38;179.40;2252.80
56436;DHT22;42335;44.872;20.658;2023-11-21T03:21:05;179.40;2252.80
56436;DHT22;42335;44.872;20.658;2023-11-21T03:23:31;179.50;2252.80
56436;DHT22;42335;44.872;20.658;2023-11-21T03:25:57;179.40;2252.80
56436;DHT22;42335;44.872;20.658;2023-11-21T03:28:25;179.50;2252.80
56436;DHT22;42335;44.872;20.658;2023-11-21T03:30:52;179.40;2252.80
56436;DHT22;42335;44.872;20.658;2023-11-21T03:33:18;179.40;2252.80
56436;DHT22;42335;44.872;20.658;2023-11-21T03:35:45;179.40;2252.80
56436;DHT22;42335;44.872;20.658;2023-11-21T03:38:11;179.40;2252.80
56436;DHT22;42335;44.872;20.658;2023-11-21T03:40:37;179.40;2252.80
56436;DHT22;42335;44.872;20.658;2023-11-21T03:43:02;179.30;2252.80
56436;DHT22;42335;44.872;20.658;2023-11-21T03:45:28;179.30;2252.80
56436;DHT22;42335;44.872;20.658;2023-11-21T03:47:54;179.40;2252.80
56436;DHT22;42335;44.872;20.658;2023-11-21T03:50:20;179.40;2252.80
56436;DHT22;42335;44.872;20.658;2023-11-21T03:52:45;179.40;2252.80
56436;DHT22;42335;44.872;20.658;2023-11-21T03:55:11;179.40;2252.80
56436;DHT22;42335;44.872;20.658;2023-11-21T03:57:37;179.40;2252.80
56436;DHT22;42335;44.872;20.658;2023-11-21T04:00:03;179.40;2252.80
56436;DHT22;42335;44.872;20.658;2023-11-21T04:02:34;179.40;2252.80
56436;DHT22;42335;44.872;20.658;2023-11-21T04:04:59;179.40;2252.80
56436;DHT22;42335;44.872;20.658;2023-11-21T04:07:25;179.40;2252.80
56436;DHT22;42335;44.872;20.658;2023-11-21T04:09:51;179.50;2252.80
56436;DHT22;42335;44.872;20.658;2023-11-21T04:12:16;179.50;2252.80
56436;DHT22;42335;44.872;20.658;2023-11-21T04:14:42;179.40;2252.80
56436;DHT22;42335;44.872;20.658;2023-11-21T04:17:08;179.40;2252.80
56436;DHT22;42335;44.872;20.658;2023-11-21T04:19:34;179.40;2252.80
56436;DHT22;42335;44.872;20.658;2023-11-21T04:22:00;179.40;2252.80
56436;DHT22;42335;44.872;20.658;2023-11-21T04:24:26;179.40;2252.80
56436;DHT22;42335;44.872;20.658;2023-11-21T04:26:52;179.40;2252.80
56436;DHT22;42335;44.872;20.658;2023-11-21T04:29:18;179.40;2252.80
56436;DHT22;42335;44.872;20.658;2023-11-21T04:31:44;179.40;2252.80
56436;DHT22;42335;44.872;20.658;2023-11-21T04:34:10;179.30;2252.80
56436;DHT22;42335;44.872;20.658;2023-11-21T04:36:35;179.40;2252.80
56436;DHT22;42335;44.872;20.658;2023-11-21T04:39:01;179.40;2252.80
56436;DHT22;42335;44.872;20.658;2023-11-21T04:41:27;179.40;2252.80
56436;DHT22;42335;44.872;20.658;2023-11-21T04:43:52;179.40;2252.80
56436;DHT22;42335;44.872;20.658;2023-11-21T04:46:18;179.50;2252.80
56436;DHT22;42335;44.872;20.658;2023-11-21T04:48:44;179.40;2252.80
56436;DHT22;42335;44.872;20.658;2023-11-21T04:51:10;179.40;2252.80
56436;DHT22;42335;44.872;20.658;2023-11-21T04:53:38;179.40;2252.80
56436;DHT22;42335;44.872;20.658;2023-11-21T04:56:05;179.40;2252.80
56436;DHT22;42335;44.872;20.658;2023-11-21T04:58:31;179.30;2252.80
56436;DHT22;42335;44.872;20.658;2023-11-21T05:00:57;179.30;2252.80
56436;DHT22;42335;44.872;20.658;2023-11-21T05:03:23;179.40;2252.80
56436;DHT22;42335;44.872;20.658;2023-11-21T05:05:49;179.40;2252.80
56436;DHT22;42335;44.872;20.658;2023-11-21T05:08:15;179.40;2252.80
56436;DHT22;42335;44.872;20.658;2023-11-21T05:10:40;179.40;2252.80
56436;DHT22;42335;44.872;20.658;2023-11-21T05:13:06;179.40;2252.80
56436;DHT22;42335;44.872;20.658;2023-11-21T05:15:35;179.50;2252.80
56436;DHT22;42335;44.872;20.658;2023-11-21T05:18:01;179.60;2252.80
56436;DHT22;42335;44.872;20.658;2023-11-21T05:20:28;179.60;2252.80
56436;DHT22;42335;44.872;20.658;2023-11-21T05:22:53;179.70;2252.80
56436;DHT22;42335;44.872;20.658;2023-11-21T05:25:19;179.70;2252.80
56436;DHT22;42335;44.872;20.658;2023-11-21T05:27:48;179.60;2252.80
56436;DHT22;42335;44.872;20.658;2023-11-21T05:30:14;179.60;2252.80
56436;DHT22;42335;44.872;20.658;2023-11-21T05:32:40;179.70;2252.80
56436;DHT22;42335;44.872;20.658;2023-11-21T05:35:10;179.70;2252.80
56436;DHT22;42335;44.872;20.658;2023-11-21T05:37:41;179.60;2252.80
56436;DHT22;42335;44.872;20.658;2023-11-21T05:40:07;179.60;2252.80
56436;DHT22;42335;44.872;20.658;2023-11-21T05:42:34;179.60;2252.80
56436;DHT22;42335;44.872;20.658;2023-11-21T05:45:01;179.60;2252.80
56436;DHT22;42335;44.872;20.658;2023-11-21T05:47:43;179.50;2252.80
56436;DHT22;42335;44.872;20.658;2023-11-21T05:50:12;179.60;2252.80
56436;DHT22;42335;44.872;20.658;2023-11-21T05:52:40;179.50;2252.80
56436;DHT22;42335;44.872;20.658;2023-11-21T05:55:08;179.60;2252.80
56436;DHT22;42335;44.872;20.658;2023-11-21T05:57:38;179.60;2252.80
56436;DHT22;42335;44.872;20.658;2023-11-21T06:00:11;179.70;2252.80
56436;DHT22;42335;44.872;20.658;2023-11-21T06:02:49;179.80;2252.80
56436;DHT22;42335;44.872;20.658;2023-11-21T06:05:18;179.70;2252.80
56436;DHT22;42335;44.872;20.658;2023-11-21T06:07:44;179.80;2252.80
56436;DHT22;42335;44.872;20.658;2023-11-21T06:10:11;179.80;2252.80
56436;DHT22;42335;44.872;20.658;2023-11-21T06:12:38;179.90;2252.80
56436;DHT22;42335;44.872;20.658;2023-11-21T06:15:06;179.90;2252.80
56436;DHT22;42335;44.872;20.658;2023-11-21T06:17:34;180.00;2252.80
56436;DHT22;42335;44.872;20.658;2023-11-21T06:20:06;179.90;2252.80
56436;DHT22;42335;44.872;20.658;2023-11-21T06:22:38;179.90;2252.80
56436;DHT22;42335;44.872;20.658;2023-11-21T06:25:05;180.10;2252.80
56436;DHT22;42335;44.872;20.658;2023-11-21T06:27:44;180.10;2252.80
56436;DHT22;42335;44.872;20.658;2023-11-21T06:30:11;180.00;2252.80
56436;DHT22;42335;44.872;20.658;2023-11-21T06:32:38;180.00;2252.80
56436;DHT22;42335;44.872;20.658;2023-11-21T06:35:04;180.00;2252.80
56436;DHT22;42335;44.872;20.658;2023-11-21T06:37:31;179.90;2252.80
56436;DHT22;42335;44.872;20.658;2023-11-21T06:39:58;180.00;2252.80
56436;DHT22;42335;44.872;20.658;2023-11-21T06:42:25;180.10;2252.80
56436;DHT22;42335;44.872;20.658;2023-11-21T06:44:51;180.00;2252.80
56436;DHT22;42335;44.872;20.658;2023-11-21T06:47:18;180.10;2252.80
56436;DHT22;42335;44.872;20.658;2023-11-21T06:49:46;180.10;2252.80
56436;DHT22;42335;44.872;20.658;2023-11-21T06:52:13;180.10;2252.80
56436;DHT22;42335;44.872;20.658;2023-11-21T06:54:39;204.90;2252.80
56436;DHT22;42335;44.872;20.658;2023-11-21T06:57:05;205.00;2252.80
56436;DHT22;42335;44.872;20.658;2023-11-21T06:59:31;205.00;2252.80
56436;DHT22;42335;44.872;20.658;2023-11-21T07:01:57;205.10;2252.80
56436;DHT22;42335;44.872;20.658;2023-11-21T07:04:22;205.10;2252.80
56436;DHT22;42335;44.872;20.658;2023-11-21T07:06:48;205.10;2252.80
56436;DHT22;42335;44.872;20.658;2023-11-21T07:09:14;205.20;2252.80
56436;DHT22;42335;44.872;20.658;2023-11-21T07:11:41;205.30;2252.80
56436;DHT22;42335;44.872;20.658;2023-11-21T07:14:07;205.30;2252.80
56436;DHT22;42335;44.872;20.658;2023-11-21T07:16:37;205.40;2252.80
56436;DHT22;42335;44.872;20.658;2023-11-21T07:19:08;205.40;2252.80
56436;DHT22;42335;44.872;20.658;2023-11-21T07:21:37;205.50;2252.80
56436;DHT22;42335;44.872;20.658;2023-11-21T07:24:04;205.70;2252.80
56436;DHT22;42335;44.872;20.658;2023-11-21T07:26:34;205.70;2252.80
56436;DHT22;42335;44.872;20.658;2023-11-21T07:29:00;230.40;2252.80
56436;DHT22;42335;44.872;20.658;2023-11-21T07:31:26;230.50;2252.80
56436;DHT22;42335;44.872;20.658;2023-11-21T07:33:52;230.50;2252.80
56436;DHT22;42335;44.872;20.658;2023-11-21T07:36:19;230.60;2252.80
56436;DHT22;42335;44.872;20.658;2023-11-21T07:38:46;230.70;2252.80
56436;DHT22;42335;44.872;20.658;2023-11-21T07:41:12;230.90;2252.80
56436;DHT22;42335;44.872;20.658;2023-11-21T07:43:41;231.10;2252.80
56436;DHT22;42335;44.872;20.658;2023-11-21T07:46:07;256.00;2252.80
56436;DHT22;42335;44.872;20.658;2023-11-21T07:48:33;256.50;2252.80
56436;DHT22;42335;44.872;20.658;2023-11-21T07:51:00;281.60;2278.40
56436;DHT22;42335;44.872;20.658;2023-11-21T07:53:26;282.20;2278.40
56436;DHT22;42335;44.872;20.658;2023-11-21T07:55:54;282.30;2278.40
56436;DHT22;42335;44.872;20.658;2023-11-21T07:58:20;307.40;2304.00
56436;DHT22;42335;44.872;20.658;2023-11-21T08:00:46;307.50;2304.00
56436;DHT22;42335;44.872;20.658;2023-11-21T08:03:13;307.80;2304.00
56436;DHT22;42335;44.872;20.658;2023-11-21T08:05:39;308.00;2304.00
56436;DHT22;42335;44.872;20.658;2023-11-21T08:08:05;308.00;2304.00
56436;DHT22;42335;44.872;20.658;2023-11-21T08:10:31;308.10;2304.00
56436;DHT22;42335;44.872;20.658;2023-11-21T08:12:56;308.10;2304.00
56436;DHT22;42335;44.872;20.658;2023-11-21T08:15:22;332.80;2329.60
56436;DHT22;42335;44.872;20.658;2023-11-21T08:17:48;332.90;2329.60
56436;DHT22;42335;44.872;20.658;2023-11-21T08:20:14;332.90;2329.60
56436;DHT22;42335;44.872;20.658;2023-11-21T08:22:44;333.70;2329.60
56436;DHT22;42335;44.872;20.658;2023-11-21T08:25:10;384.20;2329.60
56436;DHT22;42335;44.872;20.658;2023-11-21T08:27:35;384.90;2329.60
56436;DHT22;42335;44.872;20.658;2023-11-21T08:30:02;409.60;2355.20
56436;DHT22;42335;44.872;20.658;2023-11-21T08:32:28;384.90;2329.60
56436;DHT22;42335;44.872;20.658;2023-11-21T08:34:56;384.60;2329.60
56436;DHT22;42335;44.872;20.658;2023-11-21T08:37:21;384.30;2329.60
56436;DHT22;42335;44.872;20.658;2023-11-21T08:39:47;359.30;2329.60
56436;DHT22;42335;44.872;20.658;2023-11-21T08:42:18;358.80;2329.60
56436;DHT22;42335;44.872;20.658;2023-11-21T08:44:44;358.40;2329.60
56436;DHT22;42335;44.872;20.658;2023-11-21T08:47:11;333.40;2329.60
56436;DHT22;42335;44.872;20.658;2023-11-21T08:49:37;333.40;2329.60
56436;DHT22;42335;44.872;20.658;2023-11-21T08:52:04;333.20;2329.60
56436;DHT22;42335;44.872;20.658;2023-11-21T08:54:31;333.10;2329.60
56436;DHT22;42335;44.872;20.658;2023-11-21T08:56:56;333.20;2329.60
56436;DHT22;42335;44.872;20.658;2023-11-21T08:59:24;333.20;2329.60
56436;DHT22;42335;44.872;20.658;2023-11-21T09:01:50;333.10;2329.60
56436;DHT22;42335;44.872;20.658;2023-11-21T09:04:16;333.20;2329.60
56436;DHT22;42335;44.872;20.658;2023-11-21T09:06:42;333.00;2329.60
56436;DHT22;42335;44.872;20.658;2023-11-21T09:09:07;332.90;2329.60
56436;DHT22;42335;44.872;20.658;2023-11-21T09:11:36;333.00;2329.60
56436;DHT22;42335;44.872;20.658;2023-11-21T09:14:02;333.00;2329.60
56436;DHT22;42335;44.872;20.658;2023-11-21T09:16:31;333.10;2329.60
56436;DHT22;42335;44.872;20.658;2023-11-21T09:18:57;333.00;2329.60
56436;DHT22;42335;44.872;20.658;2023-11-21T09:21:23;333.10;2329.60
56436;DHT22;42335;44.872;20.658;2023-11-21T09:23:50;333.10;2329.60
56436;DHT22;42335;44.872;20.658;2023-11-21T09:26:15;332.90;2329.60
56436;DHT22;42335;44.872;20.658;2023-11-21T09:28:43;333.10;2329.60
56436;DHT22;42335;44.872;20.658;2023-11-21T09:31:12;333.10;2329.60
56436;DHT22;42335;44.872;20.658;2023-11-21T09:33:38;333.10;2329.60
56436;DHT22;42335;44.872;20.658;2023-11-21T09:36:04;333.40;2329.60
56436;DHT22;42335;44.872;20.658;2023-11-21T09:38:31;333.60;2329.60
56436;DHT22;42335;44.872;20.658;2023-11-21T09:40:57;333.70;2329.60
56436;DHT22;42335;44.872;20.658;2023-11-21T09:43:25;358.50;2329.60
56436;DHT22;42335;44.872;20.658;2023-11-21T09:46:00;333.70;2329.60
56436;DHT22;42335;44.872;20.658;2023-11-21T09:48:29;333.60;2329.60
56436;DHT22;42335;44.872;20.658;2023-11-21T09:50:56;333.60;2329.60
56436;DHT22;42335;44.872;20.658;2023-11-21T09:53:23;333.60;2329.60
56436;DHT22;42335;44.872;20.658;2023-11-21T09:55:52;333.60;2329.60
56436;DHT22;42335;44.872;20.658;2023-11-21T09:58:19;333.50;2329.60
56436;DHT22;42335;44.872;20.658;2023-11-21T10:00:46;333.30;2329.60
56436;DHT22;42335;44.872;20.658;2023-11-21T10:03:13;333.20;2329.60
56436;DHT22;42335;44.872;20.658;2023-11-21T10:05:41;333.10;2329.60
56436;DHT22;42335;44.872;20.658;2023-11-21T10:08:08;333.00;2329.60
56436;DHT22;42335;44.872;20.658;2023-11-21T10:10:36;333.00;2329.60
56436;DHT22;42335;44.872;20.658;2023-11-21T10:13:04;333.00;2329.60
56436;DHT22;42335;44.872;20.658;2023-11-21T10:15:36;333.10;2329.60
56436;DHT22;42335;44.872;20.658;2023-11-21T10:18:06;333.00;2329.60
56436;DHT22;42335;44.872;20.658;2023-11-21T10:20:33;333.00;2329.60
56436;DHT22;42335;44.872;20.658;2023-11-21T10:23:03;333.20;2329.60
56436;DHT22;42335;44.872;20.658;2023-11-21T10:25:32;333.30;2329.60
56436;DHT22;42335;44.872;20.658;2023-11-21T10:27:59;333.30;2329.60
56436;DHT22;42335;44.872;20.658;2023-11-21T10:30:38;333.30;2329.60
56436;DHT22;42335;44.872;20.658;2023-11-21T10:33:07;333.40;2329.60
56436;DHT22;42335;44.872;20.658;2023-11-21T10:38:16;333.30;2329.60
56436;DHT22;42335;44.872;20.658;2023-11-21T10:40:43;333.40;2329.60
56436;DHT22;42335;44.872;20.658;2023-11-21T10:43:12;333.30;2329.60
56436;DHT22;42335;44.872;20.658;2023-11-21T10:45:39;333.30;2329.60
56436;DHT22;42335;44.872;20.658;2023-11-21T10:48:06;333.30;2329.60
56436;DHT22;42335;44.872;20.658;2023-11-21T10:50:34;333.30;2329.60
56436;DHT22;42335;44.872;20.658;2023-11-21T10:53:04;333.30;2329.60
56436;DHT22;42335;44.872;20.658;2023-11-21T10:55:32;333.30;2329.60
56436;DHT22;42335;44.872;20.658;2023-11-21T10:58:00;333.30;2329.60
56436;DHT22;42335;44.872;20.658;2023-11-21T11:00:28;333.30;2329.60
56436;DHT22;42335;44.872;20.658;2023-11-21T11:02:54;333.30;2329.60
56436;DHT22;42335;44.872;20.658;2023-11-21T11:05:21;333.30;2329.60
56436;DHT22;42335;44.872;20.658;2023-11-21T11:07:51;333.30;2329.60
56436;DHT22;42335;44.872;20.658;2023-11-21T11:10:23;333.30;2329.60
56436;DHT22;42335;44.872;20.658;2023-11-21T11:12:51;333.20;2329.60
56436;DHT22;42335;44.872;20.658;2023-11-21T11:15:18;333.20;2329.60
56436;DHT22;42335;44.872;20.658;2023-11-21T11:17:45;333.20;2329.60
56436;DHT22;42335;44.872;20.658;2023-11-21T11:20:15;333.20;2329.60
56436;DHT22;42335;44.872;20.658;2023-11-21T11:28:29;333.30;2329.60
56436;DHT22;42335;44.872;20.658;2023-11-21T11:31:15;333.30;2329.60
56436;DHT22;42335;44.872;20.658;2023-11-21T11:34:04;333.30;2329.60
56436;DHT22;42335;44.872;20.658;2023-11-21T11:36:44;333.40;2329.60
56436;DHT22;42335;44.872;20.658;2023-11-21T11:39:34;333.30;2329.60
56436;DHT22;42335;44.872;20.658;2023-11-21T11:42:02;333.30;2329.60
56436;DHT22;42335;44.872;20.658;2023-11-21T11:47:28;333.20;2329.60
56436;DHT22;42335;44.872;20.658;2023-11-21T11:50:02;333.20;2329.60
56436;DHT22;42335;44.872;20.658;2023-11-21T11:52:36;333.20;2329.60
56436;DHT22;42335;44.872;20.658;2023-11-21T11:55:07;333.20;2329.60
56436;DHT22;42335;44.872;20.658;2023-11-21T11:57:35;333.20;2329.60
56436;DHT22;42335;44.872;20.658;2023-11-21T12:00:11;333.20;2329.60
56436;DHT22;42335;44.872;20.658;2023-11-21T12:02:41;333.20;2329.60
56436;DHT22;42335;44.872;20.658;2023-11-21T12:05:13;333.10;2329.60
56436;DHT22;42335;44.872;20.658;2023-11-21T12:07:47;333.20;2329.60
56436;DHT22;42335;44.872;20.658;2023-11-21T12:10:14;333.20;2329.60
56436;DHT22;42335;44.872;20.658;2023-11-21T12:12:45;333.20;2329.60
56436;DHT22;42335;44.872;20.658;2023-11-21T12:15:11;333.10;2329.60
56436;DHT22;42335;44.872;20.658;2023-11-21T12:17:38;333.00;2329.60
56436;DHT22;42335;44.872;20.658;2023-11-21T12:20:05;333.00;2329.60
56436;DHT22;42335;44.872;20.658;2023-11-21T12:22:43;333.00;2329.60
56436;DHT22;42335;44.872;20.658;2023-11-21T12:25:09;332.90;2329.60
56436;DHT22;42335;44.872;20.658;2023-11-21T12:27:35;332.80;2329.60
56436;DHT22;42335;44.872;20.658;2023-11-21T12:30:01;332.80;2329.60
56436;DHT22;42335;44.872;20.658;2023-11-21T12:32:26;308.10;2304.00
56436;DHT22;42335;44.872;20.658;2023-11-21T12:34:52;308.10;2304.00
56436;DHT22;42335;44.872;20.658;2023-11-21T12:37:18;308.10;2304.00
56436;DHT22;42335;44.872;20.658;2023-11-21T12:39:43;308.00;2304.00
56436;DHT22;42335;44.872;20.658;2023-11-21T12:42:09;308.00;2304.00
56436;DHT22;42335;44.872;20.658;2023-11-21T12:44:36;308.00;2304.00
56436;DHT22;42335;44.872;20.658;2023-11-21T12:47:03;308.00;2304.00
56436;DHT22;42335;44.872;20.658;2023-11-21T12:49:29;308.00;2304.00
56436;DHT22;42335;44.872;20.658;2023-11-21T12:51:54;308.00;2304.00
56436;DHT22;42335;44.872;20.658;2023-11-21T12:54:20;307.90;2304.00
56436;DHT22;42335;44.872;20.658;2023-11-21T12:56:46;307.90;2304.00
56436;DHT22;42335;44.872;20.658;2023-11-21T12:59:14;307.90;2304.00
56436;DHT22;42335;44.872;20.658;2023-11-21T13:01:43;307.80;2304.00
56436;DHT22;42335;44.872;20.658;2023-11-21T13:04:09;307.80;2304.00
56436;DHT22;42335;44.872;20.658;2023-11-21T13:06:36;307.80;2304.00
56436;DHT22;42335;44.872;20.658;2023-11-21T13:09:07;307.80;2304.00
56436;DHT22;42335;44.872;20.658;2023-11-21T13:11:36;307.80;2304.00
56436;DHT22;42335;44.872;20.658;2023-11-21T13:14:02;307.80;2304.00
56436;DHT22;42335;44.872;20.658;2023-11-21T13:16:29;307.70;2304.00
56436;DHT22;42335;44.872;20.658;2023-11-21T13:18:55;307.50;2304.00
56436;DHT22;42335;44.872;20.658;2023-11-21T13:21:21;307.60;2304.00
56436;DHT22;42335;44.872;20.658;2023-11-21T13:23:47;307.60;2304.00
56436;DHT22;42335;44.872;20.658;2023-11-21T13:26:16;307.60;2304.00
56436;DHT22;42335;44.872;20.658;2023-11-21T13:28:42;307.50;2304.00
56436;DHT22;42335;44.872;20.658;2023-11-21T13:31:11;307.50;2304.00
56436;DHT22;42335;44.872;20.658;2023-11-21T13:33:48;307.40;2304.00
56436;DHT22;42335;44.872;20.658;2023-11-21T13:36:21;307.40;2304.00
56436;DHT22;42335;44.872;20.658;2023-11-21T13:38:52;307.40;2304.00
56436;DHT22;42335;44.872;20.658;2023-11-21T13:41:21;307.30;2304.00
56436;DHT22;42335;44.872;20.658;2023-11-21T13:43:53;307.20;2304.00
56436;DHT22;42335;44.872;20.658;2023-11-21T13:46:28;282.50;2278.40
56436;DHT22;42335;44.872;20.658;2023-11-21T13:48:54;307.30;2304.00
56436;DHT22;42335;44.872;20.658;2023-11-21T13:51:22;282.50;2278.40
56436;DHT22;42335;44.872;20.658;2023-11-21T13:53:56;282.50;2278.40
56436;DHT22;42335;44.872;20.658;2023-11-21T13:56:21;282.50;2278.40
56436;DHT22;42335;44.872;20.658;2023-11-21T13:58:52;282.40;2278.40
56436;DHT22;42335;44.872;20.658;2023-11-21T14:01:20;282.30;2278.40
56436;DHT22;42335;44.872;20.658;2023-11-21T14:04:01;282.30;2278.40
56436;DHT22;42335;44.872;20.658;2023-11-21T14:06:46;282.30;2278.40
56436;DHT22;42335;44.872;20.658;2023-11-21T14:09:19;282.30;2278.40
56436;DHT22;42335;44.872;20.658;2023-11-21T14:11:55;282.20;2278.40
56436;DHT22;42335;44.872;20.658;2023-11-21T14:14:24;282.20;2278.40
56436;DHT22;42335;44.872;20.658;2023-11-21T14:16:51;282.10;2278.40
56436;DHT22;42335;44.872;20.658;2023-11-21T14:19:18;282.20;2278.40
56436;DHT22;42335;44.872;20.658;2023-11-21T14:21:44;282.10;2278.40
56436;DHT22;42335;44.872;20.658;2023-11-21T14:24:14;282.00;2278.40
56436;DHT22;42335;44.872;20.658;2023-11-21T14:26:46;282.10;2278.40
56436;DHT22;42335;44.872;20.658;2023-11-21T14:29:13;282.10;2278.40
56436;DHT22;42335;44.872;20.658;2023-11-21T14:31:41;282.10;2278.40
56436;DHT22;42335;44.872;20.658;2023-11-21T14:34:08;282.00;2278.40
56436;DHT22;42335;44.872;20.658;2023-11-21T14:36:34;282.00;2278.40
56436;DHT22;42335;44.872;20.658;2023-11-21T14:39:02;281.90;2278.40
56436;DHT22;42335;44.872;20.658;2023-11-21T14:41:30;281.90;2278.40
56436;DHT22;42335;44.872;20.658;2023-11-21T14:43:55;281.80;2278.40
56436;DHT22;42335;44.872;20.658;2023-11-21T14:46:22;281.90;2278.40
56436;DHT22;42335;44.872;20.658;2023-11-21T14:48:48;281.80;2278.40